Time;durP1;ratioP1;P1;durP2;ratioP2;P2;SDS_P1;SDS_P2;PMS_P1;PMS_P2;Temp;Humidity;BMP_temperature;BMP_pressure;BME280_temperature;BME280_humidity;BME280_pressure;Samples;Min_cycle;Max_cycle;Signal;HPM_P1;HPM_P2
2022/03/02 00:01:50;;;;;;;14.38;9.20;;;;;;;5.61;56.79;102461.84;4905460;29;20059;-89
2022/03/02 00:04:16;;;;;;;11.98;8.23;;;;;;;5.56;56.85;102455.19;4936581;29;20031;-90
2022/03/02 00:06:44;;;;;;;15.75;8.95;;;;;;;5.54;56.37;102454.50;4919594;29;20040;-90
2022/03/02 00:09:09;;;;;;;14.43;8.95;;;;;;;5.51;56.94;102458.31;4920360;29;20038;-91
2022/03/02 00:11:34;;;;;;;14.05;9.18;;;;;;;5.47;57.08;102458.75;4905947;29;20051;-90
2022/03/02 00:14:03;;;;;;;14.45;9.23;;;;;;;5.42;56.82;102459.19;4920028;29;20067;-91
2022/03/02 00:16:31;;;;;;;13.65;8.70;;;;;;;5.40;57.03;102459.31;4920088;29;20037;-91
2022/03/02 00:18:58;;;;;;;13.75;9.00;;;;;;;5.35;56.84;102466.97;4919861;29;20119;-91
2022/03/02 00:21:24;;;;;;;15.60;9.52;;;;;;;5.30;56.97;102463.84;4920159;29;20503;-91
2022/03/02 00:23:53;;;;;;;14.32;9.55;;;;;;;5.27;56.78;102466.81;4919910;29;20027;-91
2022/03/02 00:26:21;;;;;;;17.67;11.07;;;;;;;5.21;56.92;102465.53;4920161;29;20040;-90
2022/03/02 00:28:47;;;;;;;17.77;11.05;;;;;;;5.18;57.38;102471.22;4936673;29;20032;-90
2022/03/02 00:31:12;;;;;;;17.00;10.90;;;;;;;5.13;57.40;102473.44;4919487;29;20483;-90
2022/03/02 00:33:38;;;;;;;18.73;9.98;;;;;;;5.06;57.49;102466.91;4919654;29;20067;-90
2022/03/02 00:36:03;;;;;;;18.35;11.88;;;;;;;5.03;57.41;102456.44;4919871;29;20071;-90
2022/03/02 00:38:29;;;;;;;17.67;11.75;;;;;;;4.98;57.41;102461.41;4936489;29;20023;-91
2022/03/02 00:40:55;;;;;;;18.80;11.70;;;;;;;4.89;57.65;102455.00;4919493;29;20043;-90
2022/03/02 00:43:20;;;;;;;16.30;10.55;;;;;;;4.82;57.89;102460.09;4936640;29;20039;-90
2022/03/02 00:45:46;;;;;;;15.10;9.77;;;;;;;4.76;57.92;102460.63;4903699;29;20040;-90
2022/03/02 00:48:15;;;;;;;15.30;9.70;;;;;;;4.72;57.68;102467.28;4919312;29;20083;-90
2022/03/02 00:50:41;;;;;;;16.40;9.80;;;;;;;4.69;58.03;102457.63;4919338;29;20027;-89
2022/03/02 00:53:07;;;;;;;15.30;9.88;;;;;;;4.65;57.75;102460.72;4903902;29;20366;-90
2022/03/02 00:55:34;;;;;;;16.05;10.00;;;;;;;4.64;57.74;102461.75;4888066;29;20047;-90
2022/03/02 00:58:01;;;;;;;16.80;10.90;;;;;;;4.62;57.47;102456.50;4919434;29;20024;-90
2022/03/02 01:00:27;;;;;;;18.08;11.18;;;;;;;4.64;57.74;102456.38;4903496;29;20050;-90
2022/03/02 01:02:53;;;;;;;15.57;9.85;;;;;;;4.63;57.36;102458.19;4919671;29;20039;-90
2022/03/02 01:05:19;;;;;;;16.20;9.75;;;;;;;4.64;57.84;102456.38;4936148;29;20119;-90
2022/03/02 01:07:45;;;;;;;18.83;11.02;;;;;;;4.64;58.29;102440.25;4918879;29;20024;-91
2022/03/02 01:10:11;;;;;;;16.08;10.32;;;;;;;4.59;57.88;102440.63;4919635;29;20039;-90
2022/03/02 01:12:37;;;;;;;14.43;9.52;;;;;;;4.60;56.89;102433.44;4919836;29;20543;-91
2022/03/02 01:15:04;;;;;;;15.77;10.25;;;;;;;4.57;58.00;102429.16;4936367;29;20036;-91
2022/03/02 01:17:30;;;;;;;17.15;10.02;;;;;;;4.52;58.44;102439.50;4920288;29;20050;-90
2022/03/02 01:19:56;;;;;;;15.50;10.05;;;;;;;4.44;58.80;102432.09;4904294;29;20126;-90
2022/03/02 01:22:21;;;;;;;15.40;10.23;;;;;;;4.36;58.43;102435.47;4919353;29;20457;-91
2022/03/02 01:24:47;;;;;;;14.88;10.25;;;;;;;4.33;58.62;102426.84;4936087;29;20477;-91
2022/03/02 01:27:12;;;;;;;17.98;10.75;;;;;;;4.32;58.59;102425.97;4920090;29;20468;-89
2022/03/02 01:29:38;;;;;;;16.17;10.88;;;;;;;4.28;58.82;102427.25;4907072;29;20032;-91
2022/03/02 01:32:07;;;;;;;18.25;10.88;;;;;;;4.24;58.49;102417.75;4922765;29;20441;-90
2022/03/02 01:34:33;;;;;;;18.13;11.40;;;;;;;4.24;58.11;102414.19;4922593;29;20122;-90
2022/03/02 01:37:00;;;;;;;17.13;11.35;;;;;;;4.19;58.86;102414.59;4922287;29;20042;-91
2022/03/02 01:39:32;;;;;;;18.27;11.40;;;;;;;4.14;59.00;102406.09;4922503;29;20122;-90
2022/03/02 01:42:01;;;;;;;18.02;11.52;;;;;;;4.10;58.61;102413.56;4892057;29;20036;-90
2022/03/02 01:44:26;;;;;;;15.95;10.80;;;;;;;4.04;59.45;102414.09;4922495;29;20040;-89
2022/03/02 01:46:52;;;;;;;15.95;10.23;;;;;;;3.97;58.75;102413.81;4922999;29;20034;-90
2022/03/02 01:49:17;;;;;;;15.52;9.70;;;;;;;3.92;58.88;102404.44;4922430;29;20043;-90
2022/03/02 01:51:43;;;;;;;15.50;9.75;;;;;;;3.90;58.85;102411.75;4922104;29;20040;-90
2022/03/02 01:54:09;;;;;;;14.38;8.90;;;;;;;3.91;58.41;102408.94;4923141;29;20039;-90
2022/03/02 01:56:35;;;;;;;14.60;9.02;;;;;;;3.89;59.00;102410.91;4922504;29;20035;-90
2022/03/02 01:59:04;;;;;;;16.30;10.90;;;;;;;3.90;59.35;102407.25;4938827;29;20086;-90
2022/03/02 02:01:30;;;;;;;17.60;11.00;;;;;;;3.89;58.63;102400.19;4922111;29;20031;-90
2022/03/02 02:03:55;;;;;;;18.75;11.98;;;;;;;3.93;59.20;102403.47;4906520;29;20043;-90
2022/03/02 02:06:21;;;;;;;19.27;12.32;;;;;;;3.91;58.76;102405.41;4906749;29;20047;-91
2022/03/02 02:08:47;;;;;;;18.60;11.65;;;;;;;3.90;59.40;102401.03;4906662;29;20031;-91
2022/03/02 02:11:15;;;;;;;20.13;11.80;;;;;;;3.90;59.13;102399.22;4906633;29;20127;-90
2022/03/02 02:13:40;;;;;;;19.15;12.13;;;;;;;3.93;59.06;102387.34;4922136;29;20130;-90
2022/03/02 02:16:07;;;;;;;17.40;11.10;;;;;;;3.90;59.11;102387.59;4921817;29;20118;-91
2022/03/02 02:18:34;;;;;;;15.75;10.50;;;;;;;3.89;59.35;102388.59;4921737;29;20148;-91
2022/03/02 02:21:08;;;;;;;17.35;11.35;;;;;;;3.90;57.98;102382.22;4921786;29;20503;-90
2022/03/02 02:23:38;;;;;;;15.52;10.30;;;;;;;3.88;58.21;102385.03;4938887;29;20107;-90
2022/03/02 02:26:05;;;;;;;17.50;10.35;;;;;;;3.83;58.89;102388.13;4938681;29;20028;-90
2022/03/02 02:28:31;;;;;;;15.13;9.45;;;;;;;3.84;59.12;102405.13;4921650;29;20028;-91
2022/03/02 02:30:58;;;;;;;15.43;10.13;;;;;;;3.78;59.00;102382.31;4906679;29;20043;-90
2022/03/02 02:33:25;;;;;;;15.63;9.43;;;;;;;3.77;59.07;102383.31;4921925;29;20070;-91
2022/03/02 02:35:51;;;;;;;16.77;11.05;;;;;;;3.75;58.40;102387.09;4921815;29;20038;-91
2022/03/02 02:38:18;;;;;;;16.33;10.95;;;;;;;3.76;58.57;102375.38;4921394;29;20118;-91
2022/03/02 02:40:43;;;;;;;18.10;11.38;;;;;;;3.75;58.61;102374.53;4922765;29;20039;-91
2022/03/02 02:43:15;;;;;;;18.33;11.20;;;;;;;3.77;58.43;102371.72;4940593;29;20092;-91
2022/03/02 02:45:41;;;;;;;17.02;10.90;;;;;;;3.80;58.56;102382.19;4924759;29;20040;-91
2022/03/02 02:48:06;;;;;;;16.67;10.20;;;;;;;3.80;58.75;102368.78;4922988;29;20464;-91
2022/03/02 02:50:34;;;;;;;19.05;11.50;;;;;;;3.81;58.42;102370.44;4922098;29;20046;-91
2022/03/02 02:53:04;;;;;;;19.15;11.38;;;;;;;3.86;57.48;102369.06;4922368;29;20094;-91
2022/03/02 02:55:30;;;;;;;18.10;11.32;;;;;;;3.86;57.51;102366.38;4921777;29;20440;-90
2022/03/02 02:57:57;;;;;;;17.25;11.15;;;;;;;3.90;58.26;102375.03;4921146;29;20063;-91
2022/03/02 03:00:26;;;;;;;17.30;10.98;;;;;;;3.89;57.91;102372.50;4921467;29;20024;-90
2022/03/02 03:02:53;;;;;;;19.50;10.88;;;;;;;3.92;57.25;102372.22;4938289;29;20067;-91
2022/03/02 03:05:21;;;;;;;17.77;11.05;;;;;;;3.89;57.90;102367.97;4922015;29;20035;-90
2022/03/02 03:07:47;;;;;;;17.60;11.15;;;;;;;3.91;57.84;102371.34;4937971;29;20040;-90
2022/03/02 03:10:14;;;;;;;19.25;11.32;;;;;;;3.93;57.37;102373.94;4937789;29;20038;-91
2022/03/02 03:12:43;;;;;;;16.50;10.82;;;;;;;3.91;57.70;102368.66;4920702;29;20027;-91
2022/03/02 03:15:11;;;;;;;18.58;10.85;;;;;;;3.93;57.90;102372.09;4921231;29;20110;-91
2022/03/02 03:17:37;;;;;;;18.13;11.38;;;;;;;3.88;58.01;102360.88;4920881;29;20031;-91
2022/03/02 03:20:06;;;;;;;20.40;11.75;;;;;;;3.88;57.47;102363.56;4920857;29;20385;-90
2022/03/02 03:22:32;;;;;;;18.90;11.75;;;;;;;3.85;57.31;102350.41;4920706;29;20090;-90
2022/03/02 03:24:57;;;;;;;20.23;11.63;;;;;;;3.87;57.48;102367.25;4920986;29;20035;-91
2022/03/02 03:27:23;;;;;;;16.90;11.20;;;;;;;3.84;57.54;102367.53;4920680;29;20027;-91
2022/03/02 03:29:48;;;;;;;18.60;11.32;;;;;;;3.85;57.51;102362.03;4920310;29;20028;-90
2022/03/02 03:32:14;;;;;;;16.52;10.50;;;;;;;3.84;57.16;102359.47;4920627;29;20397;-91
2022/03/02 03:34:39;;;;;;;16.42;10.40;;;;;;;3.85;57.57;102369.19;4920602;29;20043;-91
2022/03/02 03:37:05;;;;;;;17.83;11.18;;;;;;;3.85;57.19;102366.50;4920871;29;20122;-91
2022/03/02 03:39:33;;;;;;;16.52;10.20;;;;;;;3.83;56.54;102355.06;4937592;29;20039;-91
2022/03/02 03:41:58;;;;;;;15.90;10.05;;;;;;;3.81;56.89;102354.34;4920886;29;20110;-91
2022/03/02 03:44:24;;;;;;;14.57;9.48;;;;;;;3.81;57.31;102351.66;4920347;29;20461;-90
2022/03/02 03:46:50;;;;;;;15.65;9.70;;;;;;;3.81;56.45;102355.22;4937388;29;20035;-91
2022/03/02 03:49:16;;;;;;;14.13;9.18;;;;;;;3.81;57.16;102351.66;4919983;29;20401;-91
2022/03/02 03:51:41;;;;;;;15.65;8.65;;;;;;;3.78;57.35;102357.28;4919974;29;20028;-90
2022/03/02 03:54:08;;;;;;;12.82;8.10;;;;;;;3.74;57.42;102355.88;4920201;29;20491;-90
2022/03/02 03:56:34;;;;;;;13.30;8.25;;;;;;;3.69;57.33;102356.25;4919920;29;20032;-90
2022/03/02 03:59:03;;;;;;;13.50;8.50;;;;;;;3.66;56.71;102351.16;4920867;29;20166;-91
2022/03/02 04:01:29;;;;;;;12.13;7.28;;;;;;;3.66;57.07;102348.47;4920142;29;20035;-91
2022/03/02 04:03:54;;;;;;;12.30;8.10;;;;;;;3.67;56.75;102345.66;4920101;29;20035;-90
2022/03/02 04:06:20;;;;;;;16.55;9.40;;;;;;;3.71;56.54;102342.72;4919839;29;20500;-90
2022/03/02 04:08:46;;;;;;;15.35;9.15;;;;;;;3.71;56.88;102340.88;4936950;29;20399;-90
2022/03/02 04:11:11;;;;;;;15.27;9.63;;;;;;;3.73;56.46;102348.81;4919600;29;20068;-90
2022/03/02 04:13:37;;;;;;;14.45;9.00;;;;;;;3.73;56.40;102348.81;4919735;29;20042;-90
2022/03/02 04:16:04;;;;;;;14.90;9.80;;;;;;;3.69;56.37;102343.69;4904301;29;20081;-90
2022/03/02 04:18:31;;;;;;;13.38;8.27;;;;;;;3.67;56.74;102339.44;4920239;29;20059;-90
2022/03/02 04:20:58;;;;;;;13.80;8.50;;;;;;;3.65;56.69;102328.84;4919831;29;20039;-90
2022/03/02 04:23:23;;;;;;;15.30;9.52;;;;;;;3.63;56.35;102324.56;4919654;29;20055;-89
2022/03/02 04:25:49;;;;;;;15.75;9.73;;;;;;;3.64;55.92;102332.50;4903947;29;20032;-90
2022/03/02 04:28:15;;;;;;;14.73;9.02;;;;;;;3.61;56.30;102327.41;4919620;29;20042;-90
2022/03/02 04:30:40;;;;;;;14.88;8.55;;;;;;;3.58;56.49;102321.47;4919456;29;20115;-90
2022/03/02 04:33:06;;;;;;;12.35;7.50;;;;;;;3.55;56.84;102324.41;4918785;29;20051;-90
2022/03/02 04:35:33;;;;;;;12.85;8.02;;;;;;;3.51;56.70;102324.69;4920011;29;20464;-90
2022/03/02 04:37:59;;;;;;;11.85;7.80;;;;;;;3.49;56.24;102320.41;4904564;29;20044;-90
2022/03/02 04:40:25;;;;;;;11.70;7.75;;;;;;;3.45;56.67;102317.13;4919911;29;20051;-90
2022/03/02 04:42:54;;;;;;;13.25;7.75;;;;;;;3.45;56.73;102317.13;4919468;29;20040;-90
2022/03/02 04:45:21;;;;;;;12.43;7.80;;;;;;;3.41;56.47;102314.84;4919915;29;20040;-90
2022/03/02 04:47:47;;;;;;;14.32;8.30;;;;;;;3.38;56.10;102310.63;4919255;29;20032;-90
2022/03/02 04:50:12;;;;;;;13.57;8.13;;;;;;;3.34;56.12;102311.88;4904682;29;20167;-90
2022/03/02 04:52:38;;;;;;;14.57;8.60;;;;;;;3.38;56.40;102309.75;4936544;29;20028;-90
2022/03/02 04:55:07;;;;;;;15.90;9.43;;;;;;;3.37;56.54;102298.19;4919573;29;20543;-90
2022/03/02 04:57:47;;;;;;;18.13;10.10;;;;;;;3.40;56.25;102308.66;4904109;29;20391;-90
2022/03/02 05:00:15;;;;;;;15.93;9.25;;;;;;;3.38;56.57;102299.03;4919599;29;20042;-90
2022/03/02 05:02:42;;;;;;;14.57;9.10;;;;;;;3.39;56.32;102300.72;4921089;29;20455;-90
2022/03/02 05:05:12;;;;;;;15.25;9.80;;;;;;;3.39;55.73;102292.69;4907392;29;20464;-90
2022/03/02 05:07:38;;;;;;;14.25;9.27;;;;;;;3.37;56.17;102302.72;4923590;29;20063;-90
2022/03/02 05:10:04;;;;;;;13.52;8.68;;;;;;;3.36;56.39;102295.63;4939847;29;20032;-89
2022/03/02 05:12:30;;;;;;;13.43;8.50;;;;;;;3.31;56.57;102301.41;4907510;29;20032;-90
2022/03/02 05:14:56;;;;;;;13.02;8.35;;;;;;;3.30;56.14;102303.22;4923568;29;20044;-91
2022/03/02 05:17:21;;;;;;;13.77;8.55;;;;;;;3.30;56.44;102297.00;4939768;29;20059;-90
2022/03/02 05:19:47;;;;;;;11.48;7.32;;;;;;;3.27;56.02;102292.75;4922990;29;20035;-90
2022/03/02 05:22:13;;;;;;;14.48;8.63;;;;;;;3.30;55.95;102297.84;4922819;29;20039;-90
2022/03/02 05:24:41;;;;;;;12.18;7.65;;;;;;;3.25;56.50;102294.72;4923056;29;20532;-90
2022/03/02 05:27:07;;;;;;;12.65;7.70;;;;;;;3.22;56.54;102300.34;4923231;29;20031;-90
2022/03/02 05:29:33;;;;;;;12.43;7.60;;;;;;;3.22;56.42;102296.81;4922332;29;20027;-90
2022/03/02 05:32:01;;;;;;;11.50;7.13;;;;;;;3.18;56.28;102290.88;4922660;29;20031;-90
2022/03/02 05:34:27;;;;;;;13.30;8.23;;;;;;;3.20;55.88;102296.94;4939634;29;20031;-90
2022/03/02 05:36:52;;;;;;;17.98;10.07;;;;;;;3.21;56.24;102284.41;4922204;29;20536;-90
2022/03/02 05:39:18;;;;;;;16.05;9.18;;;;;;;3.22;56.24;102280.72;4922120;29;20024;-91
2022/03/02 05:41:43;;;;;;;15.73;9.60;;;;;;;3.19;56.09;102284.53;4907175;29;20055;-90
2022/03/02 05:44:09;;;;;;;14.10;8.98;;;;;;;3.18;56.20;102280.13;4939498;29;20034;-90
2022/03/02 05:46:37;;;;;;;14.18;8.88;;;;;;;3.18;55.84;102284.66;4922013;29;20392;-91
2022/03/02 05:49:04;;;;;;;15.00;8.70;;;;;;;3.20;55.94;102285.38;4922828;29;20020;-90
2022/03/02 05:51:30;;;;;;;15.43;9.50;;;;;;;3.18;55.77;102284.66;4921947;29;20032;-91
2022/03/02 05:54:00;;;;;;;15.05;9.27;;;;;;;3.20;55.46;102280.84;4922333;29;20600;-90
2022/03/02 05:56:28;;;;;;;15.52;9.32;;;;;;;3.20;55.25;102283.53;4907273;29;20042;-91
2022/03/02 05:58:53;;;;;;;13.88;9.48;;;;;;;3.21;55.41;102287.91;4923051;29;20036;-91
2022/03/02 06:01:19;;;;;;;14.88;8.98;;;;;;;3.20;55.90;102288.88;4939134;29;20353;-90
2022/03/02 06:03:45;;;;;;;13.82;8.48;;;;;;;3.18;55.66;102288.19;4921948;29;20380;-90
2022/03/02 06:06:11;;;;;;;14.20;8.98;;;;;;;3.19;54.76;102279.16;4922079;29;20091;-90
2022/03/02 06:08:36;;;;;;;14.02;8.75;;;;;;;3.20;55.08;102286.19;4906289;29;20040;-91
2022/03/02 06:11:03;;;;;;;14.38;8.48;;;;;;;3.18;54.99;102288.19;4922540;29;20051;-91
2022/03/02 06:13:31;;;;;;;11.32;7.30;;;;;;;3.18;54.98;102290.03;4921453;29;20034;-90
2022/03/02 06:16:01;;;;;;;13.35;8.10;;;;;;;3.14;55.01;102287.59;4922542;29;20070;-90
2022/03/02 06:18:27;;;;;;;11.63;7.60;;;;;;;3.13;55.05;102285.03;4921864;29;20070;-90
2022/03/02 06:20:59;;;;;;;14.30;8.30;;;;;;;3.18;54.71;102290.88;4922504;29;20039;-90
2022/03/02 06:23:29;;;;;;;16.33;9.65;;;;;;;3.18;55.08;102296.22;4922092;29;20380;-89
2022/03/02 06:25:55;;;;;;;14.15;8.80;;;;;;;3.16;54.71;102295.53;4922035;29;20431;-91
2022/03/02 06:28:21;;;;;;;14.00;8.15;;;;;;;3.16;54.67;102301.72;4921894;29;20027;-86
2022/03/02 06:30:47;;;;;;;12.88;7.78;;;;;;;3.11;54.71;102297.72;4921377;29;20062;-87
2022/03/02 06:33:16;;;;;;;13.27;8.70;;;;;;;3.10;55.00;102296.00;4905475;29;20472;-90
2022/03/02 06:35:41;;;;;;;11.77;7.72;;;;;;;3.09;54.85;102292.50;4939086;29;20086;-89
2022/03/02 06:38:07;;;;;;;14.48;8.75;;;;;;;3.12;54.55;102302.13;4905341;29;20036;-87
2022/03/02 06:40:32;;;;;;;13.30;8.75;;;;;;;3.16;54.99;102306.25;4921051;29;20036;-87
2022/03/02 06:43:08;;;;;;;13.93;9.10;;;;;;;3.15;54.49;102296.50;4905300;29;20035;-87
2022/03/02 06:45:58;;;;;;;12.73;8.00;;;;;;;3.19;54.25;102303.31;4921240;29;20024;-86
2022/03/02 06:48:32;;;;;;;14.05;8.90;;;;;;;3.19;54.37;102308.66;4937532;29;20440;-87
2022/03/02 06:51:01;;;;;;;12.25;7.88;;;;;;;3.16;54.47;102315.13;4921663;29;20034;-87
2022/03/02 06:53:35;;;;;;;13.35;8.20;;;;;;;3.18;54.45;102309.63;4921363;29;20040;-87
2022/03/02 06:56:05;;;;;;;13.52;8.43;;;;;;;3.18;54.86;102312.31;4921030;29;20059;-87
2022/03/02 06:58:52;;;;;;;13.52;8.65;;;;;;;3.24;54.04;102317.16;4920957;29;20358;-87
2022/03/02 07:01:25;;;;;;;14.15;9.10;;;;;;;3.26;53.90;102317.03;4937888;29;20035;-87
2022/03/02 07:03:54;;;;;;;14.45;8.82;;;;;;;3.28;54.14;102309.72;4920588;29;20031;-86
2022/03/02 07:06:21;;;;;;;13.52;8.20;;;;;;;3.32;53.70;102312.00;4920527;29;20032;-87
2022/03/02 07:08:50;;;;;;;13.85;8.20;;;;;;;3.31;53.72;102306.75;4920551;29;20031;-87
2022/03/02 07:11:16;;;;;;;13.73;8.35;;;;;;;3.35;53.87;102310.84;4904922;29;20067;-87
2022/03/02 07:13:46;;;;;;;14.43;8.90;;;;;;;3.40;53.62;102318.53;4920955;29;20043;-87
2022/03/02 07:16:17;;;;;;;14.23;9.10;;;;;;;3.43;53.19;102311.06;4921453;29;20477;-86
2022/03/02 07:18:43;;;;;;;13.98;8.30;;;;;;;3.48;53.55;102314.22;4937201;29;20053;-87
2022/03/02 07:21:13;;;;;;;14.10;9.15;;;;;;;3.53;53.09;102319.19;4920439;29;20069;-87
2022/03/02 07:23:54;;;;;;;16.52;9.40;;;;;;;3.58;53.06;102318.78;4937027;29;20091;-86
2022/03/02 07:26:21;;;;;;;13.60;8.65;;;;;;;3.63;53.06;102322.78;4937026;29;20059;-86
2022/03/02 07:28:47;;;;;;;14.65;8.98;;;;;;;3.71;52.69;102321.25;4904422;29;20126;-87
2022/03/02 07:31:13;;;;;;;12.60;8.00;;;;;;;3.74;52.57;102329.03;4919986;29;20087;-86
2022/03/02 07:33:42;;;;;;;13.45;8.52;;;;;;;3.80;52.72;102320.44;4920029;29;20039;-86
2022/03/02 07:36:09;;;;;;;14.35;9.25;;;;;;;3.85;52.32;102332.47;4920176;29;20038;-86
2022/03/02 07:38:35;;;;;;;14.10;8.60;;;;;;;3.90;53.03;102320.47;4919983;29;20118;-86
2022/03/02 07:41:05;;;;;;;14.25;8.32;;;;;;;3.94;52.14;102325.44;4937077;29;20133;-87
2022/03/02 07:43:30;;;;;;;12.68;8.02;;;;;;;3.97;52.37;102316.25;4937320;29;20095;-87
2022/03/02 07:45:56;;;;;;;12.48;7.97;;;;;;;4.03;51.79;102318.38;4904091;29;20044;-87
2022/03/02 07:48:21;;;;;;;16.42;9.30;;;;;;;4.05;51.64;102308.38;4903959;29;20071;-87
2022/03/02 07:50:49;;;;;;;15.15;9.80;;;;;;;4.09;51.83;102309.81;4904150;29;20039;-88
2022/03/02 07:53:16;;;;;;;15.40;8.90;;;;;;;4.12;51.64;102308.66;4936431;29;20031;-87
2022/03/02 07:55:44;;;;;;;15.85;9.88;;;;;;;4.14;51.17;102304.84;4919617;29;20035;-86
2022/03/02 07:58:10;;;;;;;14.85;9.20;;;;;;;4.20;51.08;102311.53;4919566;29;20036;-86
2022/03/02 08:00:36;;;;;;;14.40;8.80;;;;;;;4.27;50.89;102310.00;4919324;29;20028;-87
2022/03/02 08:03:02;;;;;;;13.82;8.38;;;;;;;4.31;50.94;102303.38;4903793;29;20115;-86
2022/03/02 08:05:28;;;;;;;13.00;7.63;;;;;;;4.40;50.69;102309.75;4888437;29;20067;-86
2022/03/02 08:07:54;;;;;;;13.48;7.97;;;;;;;4.46;50.45;102293.06;4919253;29;20032;-86
2022/03/02 08:10:20;;;;;;;13.85;8.63;;;;;;;4.58;50.13;102299.16;4919124;29;20035;-86
2022/03/02 08:12:46;;;;;;;13.15;9.00;;;;;;;4.69;49.51;102296.31;4919750;29;20067;-86
2022/03/02 08:15:12;;;;;;;13.30;8.73;;;;;;;4.79;49.45;102292.78;4919471;29;20028;-86
2022/03/02 08:17:38;;;;;;;13.00;8.30;;;;;;;4.91;49.26;102295.16;4919364;29;20171;-86
2022/03/02 08:20:05;;;;;;;11.30;7.50;;;;;;;5.04;49.27;102300.25;4936586;29;20093;-85
2022/03/02 08:22:34;;;;;;;12.93;7.82;;;;;;;5.12;48.25;102296.00;4936733;29;20043;-86
2022/03/02 08:25:10;;;;;;;15.32;7.80;;;;;;;5.21;49.04;102289.75;4919582;29;20547;-86
2022/03/02 08:27:41;;;;;;;15.15;8.55;;;;;;;5.28;47.93;102296.25;4919632;29;20036;-86
2022/03/02 08:30:08;;;;;;;14.20;9.30;;;;;;;5.36;48.16;102292.84;4919588;29;20036;-86
2022/03/02 08:32:39;;;;;;;14.75;8.63;;;;;;;5.43;48.19;102293.97;4919471;29;20366;-86
2022/03/02 08:35:06;;;;;;;18.30;10.35;;;;;;;5.53;46.97;102293.94;4919027;29;20028;-87
2022/03/02 08:37:32;;;;;;;16.70;9.48;;;;;;;5.57;47.44;102290.81;4922599;29;20032;-87
2022/03/02 08:39:59;;;;;;;12.38;8.35;;;;;;;5.63;47.12;102290.22;4907653;29;20369;-87
2022/03/02 08:42:25;;;;;;;11.48;7.82;;;;;;;5.71;46.27;102286.78;4907397;29;20032;-87
2022/03/02 08:44:50;;;;;;;10.95;6.95;;;;;;;5.76;46.96;102289.88;4907347;29;20038;-87
2022/03/02 08:47:16;;;;;;;10.95;7.28;;;;;;;5.79;46.68;102281.50;4940105;29;20044;-87
2022/03/02 08:49:41;;;;;;;14.20;8.18;;;;;;;5.87;46.77;102279.91;4940002;29;20031;-87
2022/03/02 08:52:09;;;;;;;12.05;7.40;;;;;;;5.91;46.57;102282.16;4907166;29;20043;-87
2022/03/02 08:54:44;;;;;;;13.10;8.75;;;;;;;5.92;46.15;102281.16;4940475;29;20055;-87
2022/03/02 08:57:10;;;;;;;12.95;8.43;;;;;;;5.97;46.05;102281.59;4923577;29;20540;-87
2022/03/02 08:59:39;;;;;;;12.20;7.75;;;;;;;6.13;46.79;102278.25;4939811;29;20074;-86
2022/03/02 09:02:06;;;;;;;13.32;8.77;;;;;;;6.09;46.04;102276.00;4922855;29;20465;-86
2022/03/02 09:04:34;;;;;;;12.52;8.20;;;;;;;6.18;45.89;102268.84;4923003;29;20039;-86
2022/03/02 09:07:06;;;;;;;12.85;8.63;;;;;;;6.15;46.39;102278.09;4940418;29;20086;-86
2022/03/02 09:09:32;;;;;;;12.95;8.40;;;;;;;6.14;45.58;102273.69;4922344;29;20028;-87
2022/03/02 09:11:58;;;;;;;12.82;7.47;;;;;;;6.21;45.33;102268.56;4939607;29;20056;-86
2022/03/02 09:14:24;;;;;;;10.15;7.30;;;;;;;6.22;46.19;102271.09;4922235;29;20031;-86
2022/03/02 09:16:50;;;;;;;12.57;8.07;;;;;;;6.24;45.56;102263.69;4922129;29;20047;-86
2022/03/02 09:19:17;;;;;;;11.40;7.80;;;;;;;6.27;45.41;102263.38;4922093;29;20039;-86
2022/03/02 09:21:46;;;;;;;11.48;7.25;;;;;;;6.30;45.49;102264.94;4922346;29;20099;-86
2022/03/02 09:24:13;;;;;;;9.10;7.13;;;;;;;6.37;45.99;102257.09;4906816;29;20495;-86
2022/03/02 09:26:40;;;;;;;12.07;7.38;;;;;;;6.39;45.33;102261.34;4922284;29;20552;-87
2022/03/02 09:29:07;;;;;;;10.40;7.50;;;;;;;6.42;44.74;102268.25;4938986;29;20059;-87
2022/03/02 09:31:34;;;;;;;9.32;6.43;;;;;;;6.52;43.79;102265.50;4938827;29;20106;-87
2022/03/02 09:34:03;;;;;;;11.73;7.38;;;;;;;6.55;44.53;102254.41;4939293;29;20091;-87
2022/03/02 09:36:33;;;;;;;10.77;7.28;;;;;;;6.64;43.63;102262.44;4922319;29;20035;-85
2022/03/02 09:38:59;;;;;;;10.15;7.13;;;;;;;6.64;42.61;102250.78;4922113;29;20139;-85
2022/03/02 09:41:41;;;;;;;11.25;7.43;;;;;;;6.76;42.85;102256.78;4939418;29;20118;-85
2022/03/02 09:44:11;;;;;;;12.43;7.40;;;;;;;6.79;42.75;102249.22;4922417;29;20043;-84
2022/03/02 09:46:38;;;;;;;9.65;6.75;;;;;;;6.90;43.42;102244.59;4939067;29;20087;-85
2022/03/02 09:49:06;;;;;;;12.38;7.95;;;;;;;6.94;41.62;102245.94;4920826;29;20086;-85
2022/03/02 09:51:33;;;;;;;10.32;7.00;;;;;;;7.00;41.92;102240.78;4922594;29;20023;-85
2022/03/02 09:54:01;;;;;;;9.27;6.72;;;;;;;7.07;42.51;102242.84;4906217;29;20044;-85
2022/03/02 09:56:31;;;;;;;9.93;6.80;;;;;;;7.12;42.33;102235.13;4921655;29;20118;-85
2022/03/02 09:58:59;;;;;;;10.50;6.85;;;;;;;7.17;42.50;102233.63;4921918;29;20086;-85
2022/03/02 10:01:26;;;;;;;9.25;6.55;;;;;;;7.27;41.77;102236.22;4905758;29;20046;-85
2022/03/02 10:03:53;;;;;;;8.45;6.63;;;;;;;7.34;41.17;102225.66;4905732;29;20039;-85
2022/03/02 10:06:20;;;;;;;11.20;7.40;;;;;;;7.44;41.43;102229.09;4938299;29;20116;-84
2022/03/02 10:08:51;;;;;;;9.82;6.90;;;;;;;7.50;41.40;102223.03;4938860;29;20031;-85
2022/03/02 10:11:24;;;;;;;12.32;7.55;;;;;;;7.60;41.64;102230.16;4921579;29;20063;-85
2022/03/02 10:13:51;;;;;;;11.75;7.45;;;;;;;7.70;40.41;102239.81;4902786;29;20388;-85
2022/03/02 10:16:26;;;;;;;10.30;7.22;;;;;;;7.81;40.93;102237.84;4905721;29;20068;-86
2022/03/02 10:18:56;;;;;;;11.15;7.72;;;;;;;7.94;38.76;102237.38;4921861;29;20445;-84
2022/03/02 10:21:28;;;;;;;9.80;6.53;;;;;;;8.02;38.72;102235.56;4921403;29;20385;-84
2022/03/02 10:23:59;;;;;;;9.23;6.75;;;;;;;8.13;39.61;102236.25;4922118;29;20042;-84
2022/03/02 10:26:30;;;;;;;9.30;6.30;;;;;;;8.25;39.60;102226.81;4921678;29;20437;-84
2022/03/02 10:29:02;;;;;;;10.98;6.60;;;;;;;8.40;38.67;102227.00;4921033;29;20034;-84
2022/03/02 10:31:45;;;;;;;10.38;6.93;;;;;;;8.57;40.10;102227.91;4921910;29;20512;-84
2022/03/02 10:34:29;;;;;;;;;;;;;;;8.68;39.56;102221.31;4938683;29;20031;-84
2022/03/02 10:37:19;;;;;;;11.70;7.18;;;;;;;8.82;38.50;102217.94;4921868;29;19950;-84
2022/03/02 10:40:15;;;;;;;10.90;6.88;;;;;;;8.97;37.30;102223.50;4921578;29;20046;-84
2022/03/02 10:43:00;;;;;;;11.43;7.57;;;;;;;9.09;36.60;102213.16;4921260;29;20024;-84
2022/03/02 10:45:36;;;;;;;10.10;7.22;;;;;;;9.25;36.52;102220.41;4921510;29;20039;-84
2022/03/02 10:48:12;;;;;;;9.65;7.00;;;;;;;9.40;36.71;102218.66;4937966;29;20028;-85
2022/03/02 10:50:40;;;;;;;11.60;7.07;;;;;;;9.55;35.99;102220.66;4920983;29;20055;-85
2022/03/02 10:53:13;;;;;;;11.20;7.30;;;;;;;9.69;36.19;102213.66;4921225;29;20129;-85
2022/03/02 10:55:42;;;;;;;10.30;6.88;;;;;;;9.85;35.95;102213.59;4905382;29;20035;-85
2022/03/02 10:58:13;;;;;;;10.23;6.72;;;;;;;10.05;35.55;102213.13;4937649;29;20046;-85
2022/03/02 11:00:39;;;;;;;9.75;6.75;;;;;;;10.27;36.81;102211.47;4938148;29;20038;-85
2022/03/02 11:03:08;;;;;;;8.75;6.18;;;;;;;10.42;35.15;102206.97;4937652;29;20035;-85
2022/03/02 11:05:34;;;;;;;7.13;5.72;;;;;;;10.65;35.42;102212.38;4904860;29;20035;-85
2022/03/02 11:08:00;;;;;;;7.65;5.50;;;;;;;10.90;34.35;102197.78;4920242;29;20035;-85
2022/03/02 11:10:33;;;;;;;9.07;6.13;;;;;;;11.11;33.81;102197.88;4937409;29;20106;-85
2022/03/02 11:13:15;;;;;;;11.27;8.05;;;;;;;11.29;33.13;102199.38;4919379;29;20067;-83
2022/03/02 11:16:01;;;;;;;8.52;6.25;;;;;;;11.59;33.09;102200.22;4937783;29;20028;-82
2022/03/02 11:18:42;;;;;;;9.82;6.70;;;;;;;11.87;33.00;102191.34;4920106;29;20032;-82
2022/03/02 11:21:14;;;;;;;8.98;6.45;;;;;;;12.18;33.15;102191.13;4937961;29;20024;-85
2022/03/02 11:23:54;;;;;;;10.85;7.45;;;;;;;12.98;33.16;102180.06;4904520;29;20032;-84
2022/03/02 11:26:26;;;;;;;11.15;7.13;;;;;;;15.69;29.22;102171.84;4937001;29;20047;-85
2022/03/02 11:29:00;;;;;;;8.90;6.40;;;;;;;18.71;26.77;102162.13;4920128;29;20122;-84